Time;durP1;ratioP1;P1;durP2;ratioP2;P2;SDS_P1;SDS_P2;PMS_P1;PMS_P2;Temp;Humidity;BMP_temperature;BMP_pressure;BME280_temperature;BME280_humidity;BME280_pressure;Samples;Min_cycle;Max_cycle;Signal;HPM_P1;HPM_P2
2022/01/21 00:00:05;;;;;;;4.00;2.27;;;;;;;1.27;84.95;100009.59;5051723;27;103712;-63
2022/01/21 00:02:38;;;;;;;4.93;2.50;;;;;;;1.28;84.87;100008.72;5050853;27;103784;-65
2022/01/21 00:05:07;;;;;;;6.60;2.53;;;;;;;1.34;84.97;100006.91;5031960;27;103239;-65
2022/01/21 00:07:35;;;;;;;7.93;2.80;;;;;;;1.29;84.92;100006.13;5049107;27;102672;-65
2022/01/21 00:10:05;;;;;;;6.97;2.10;;;;;;;1.17;84.37;100017.56;5032304;27;104121;-65
2022/01/21 00:12:34;;;;;;;7.23;2.87;;;;;;;1.14;85.44;100016.75;5050956;27;104232;-64
2022/01/21 00:15:05;;;;;;;6.83;2.40;;;;;;;1.22;85.17;100014.88;5033516;27;104137;-64
2022/01/21 00:17:35;;;;;;;5.50;2.93;;;;;;;1.18;85.05;100015.78;5048754;27;104487;-64
2022/01/21 00:31:08;;;;;;;4.07;2.20;;;;;;;1.22;84.73;100014.88;5032967;27;103163;-64
2022/01/21 00:33:37;;;;;;;6.47;2.57;;;;;;;1.31;84.59;100019.09;5045821;27;104268;-64
2022/01/21 00:36:06;;;;;;;6.90;2.13;;;;;;;1.28;84.29;100020.00;5034062;27;104035;-64
2022/01/21 00:38:34;;;;;;;6.90;2.30;;;;;;;1.35;83.84;100016.44;5048306;27;102624;-65
2022/01/21 00:41:05;;;;;;;4.67;2.20;;;;;;;1.34;84.18;100019.94;5029571;27;104179;-66
2022/01/21 00:43:43;;;;;;;8.77;2.67;;;;;;;1.33;83.63;100023.41;5029505;27;104283;-66
2022/01/21 00:46:13;;;;;;;7.53;2.10;;;;;;;1.38;83.75;100018.13;5050139;27;103250;-66
2022/01/21 00:48:42;;;;;;;8.60;2.30;;;;;;;1.45;83.21;100018.03;5048803;27;103168;-65
2022/01/21 00:51:09;;;;;;;5.57;2.00;;;;;;;1.41;83.71;100026.75;5032764;27;102867;-65
2022/01/21 00:53:38;;;;;;;5.37;2.23;;;;;;;1.44;83.92;100024.09;5049746;27;103461;-65
2022/01/21 00:56:06;;;;;;;7.20;2.43;;;;;;;1.49;83.71;100024.91;5048386;27;103315;-64
2022/01/21 00:58:35;;;;;;;10.53;2.27;;;;;;;1.52;83.27;100024.84;5030840;27;102696;-65
2022/01/21 01:01:04;;;;;;;4.00;1.90;;;;;;;1.52;83.52;100024.84;5030207;27;104353;-65
2022/01/21 01:03:33;;;;;;;7.07;2.20;;;;;;;1.61;83.63;100023.84;5049891;27;104072;-65
2022/01/21 01:06:01;;;;;;;7.97;2.40;;;;;;;1.53;83.14;100025.72;5046029;27;103252;-65
2022/01/21 01:08:29;;;;;;;4.70;2.03;;;;;;;1.61;83.40;100024.72;5050411;27;102743;-65
2022/01/21 01:11:17;;;;;;;5.57;2.30;;;;;;;1.61;83.50;100036.88;5030740;27;103935;-65
2022/01/21 01:22:07;;;;;;;7.93;2.03;;;;;;;1.54;83.40;100056.97;5052810;27;103759;-64
2022/01/21 01:27:38;;;;;;;5.27;2.10;;;;;;;1.61;83.22;100055.97;5030348;27;103533;-63
2022/01/21 01:30:12;;;;;;;4.93;2.20;;;;;;;1.56;84.03;100062.16;5047967;27;102894;-65
2022/01/21 01:32:41;;;;;;;6.80;2.00;;;;;;;1.49;84.00;100060.50;5048160;27;104049;-65
2022/01/21 01:35:13;;;;;;;8.60;2.70;;;;;;;1.51;83.58;100064.84;5026630;27;104450;-65
2022/01/21 01:38:05;;;;;;;5.10;2.17;;;;;;;1.56;83.46;100062.16;5029663;27;103220;-65
2022/01/21 01:40:38;;;;;;;7.73;2.20;;;;;;;1.62;83.68;100062.06;5031883;27;102808;-65
2022/01/21 01:51:26;;;;;;;8.23;2.40;;;;;;;1.59;83.52;100052.56;5030809;27;102686;-65
2022/01/21 01:53:58;;;;;;;5.13;2.10;;;;;;;1.46;84.44;100044.94;5046527;27;103878;-65
2022/01/21 01:56:30;;;;;;;6.83;2.53;;;;;;;1.55;84.31;100045.66;5032805;27;104207;-65
2022/01/21 01:58:58;;;;;;;4.17;2.17;;;;;;;1.47;84.25;100052.72;5049648;27;103234;-64
2022/01/21 02:01:27;;;;;;;4.97;2.57;;;;;;;1.47;83.95;100047.50;5025768;27;102866;-64
2022/01/21 02:03:55;;;;;;;4.87;2.40;;;;;;;1.57;84.03;100041.28;5031607;27;104634;-64
2022/01/21 02:06:23;;;;;;;7.97;2.40;;;;;;;1.55;84.24;100047.38;5030023;27;104276;-65
2022/01/21 02:08:53;;;;;;;6.43;2.43;;;;;;;1.62;84.81;100039.47;5037416;27;104113;-66
2022/01/21 02:11:21;;;;;;;7.43;2.27;;;;;;;1.62;84.74;100039.47;5034082;27;102795;-65
2022/01/21 02:13:56;;;;;;;5.80;2.77;;;;;;;1.67;85.14;100031.59;5034150;27;103611;-66
2022/01/21 02:16:37;;;;;;;5.60;2.17;;;;;;;1.48;84.75;100038.81;5028521;27;104095;-65
2022/01/21 02:21:52;;;;;;;9.00;2.43;;;;;;;1.57;84.33;100017.81;5031310;27;102791;-65
2022/01/21 02:24:24;;;;;;;8.00;2.50;;;;;;;1.59;84.66;100026.50;5034363;27;104161;-65
2022/01/21 02:26:53;;;;;;;9.20;2.30;;;;;;;1.62;84.28;100021.25;5035714;27;104368;-64
2022/01/21 02:29:31;;;;;;;6.70;2.30;;;;;;;1.53;83.88;100018.78;5053330;27;103298;-64
2022/01/21 02:32:02;;;;;;;5.67;2.37;;;;;;;1.58;83.49;100019.56;5032930;27;102673;-65
2022/01/21 02:34:32;;;;;;;4.30;2.10;;;;;;;1.45;83.68;100032.78;5032193;27;103961;-64
2022/01/21 02:37:02;;;;;;;5.50;2.37;;;;;;;1.43;83.80;100040.59;5036742;27;103880;-63
2022/01/21 02:39:30;;;;;;;8.07;2.60;;;;;;;1.45;83.64;100038.88;5036494;27;103290;-63
2022/01/21 02:41:58;;;;;;;3.37;1.87;;;;;;;1.49;83.69;100037.91;5033258;27;102747;-65
2022/01/21 02:44:26;;;;;;;6.47;2.50;;;;;;;1.52;83.95;100037.88;5035067;27;104067;-64
2022/01/21 02:46:57;;;;;;;5.27;2.00;;;;;;;1.47;83.40;100055.31;5033090;27;105119;-65
2022/01/21 02:49:28;;;;;;;8.57;2.63;;;;;;;1.45;84.38;100064.03;5035161;27;103313;-64
2022/01/21 02:52:01;;;;;;;6.33;2.83;;;;;;;1.35;83.69;100062.47;5031429;27;102803;-64
2022/01/21 02:54:34;;;;;;;5.87;2.20;;;;;;;1.42;83.44;100069.28;5034541;27;103768;-65
2022/01/21 02:57:04;;;;;;;5.23;2.20;;;;;;;1.48;83.71;100064.00;5029335;27;105201;-65
2022/01/21 02:59:32;;;;;;;6.50;2.10;;;;;;;1.52;83.69;100061.31;5029153;27;104360;-63
2022/01/21 03:02:01;;;;;;;6.73;2.37;;;;;;;1.45;82.99;100064.03;5048417;27;102663;-64
2022/01/21 03:04:37;;;;;;;8.60;2.00;;;;;;;1.43;83.59;100051.03;5051303;27;104491;-64
2022/01/21 03:07:06;;;;;;;6.13;2.50;;;;;;;1.46;83.58;100058.81;5032694;27;104000;-64
2022/01/21 03:09:36;;;;;;;6.50;2.40;;;;;;;1.51;83.88;100070.03;5033883;27;105890;-65
2022/01/21 03:12:04;;;;;;;5.23;2.47;;;;;;;1.47;83.98;100065.75;5028903;27;104239;-65
2022/01/21 03:14:33;;;;;;;6.13;2.00;;;;;;;1.53;83.64;100064.78;5034389;27;102712;-65
2022/01/21 03:17:01;;;;;;;6.77;2.07;;;;;;;1.51;83.66;100074.38;5051427;27;103350;-65
2022/01/21 03:19:29;;;;;;;6.07;1.93;;;;;;;1.57;83.66;100079.50;5032593;27;106082;-64
2022/01/21 03:21:57;;;;;;;6.13;2.20;;;;;;;1.53;83.67;100073.47;5053333;27;103136;-65
2022/01/21 03:24:24;;;;;;;7.50;2.53;;;;;;;1.52;83.68;100070.88;5052879;27;102817;-65
2022/01/21 03:26:54;;;;;;;6.70;2.37;;;;;;;1.41;83.72;100065.81;5031442;27;104143;-65
2022/01/21 03:29:22;;;;;;;8.23;2.80;;;;;;;1.41;83.86;100062.34;5033742;27;104196;-65
2022/01/21 03:31:53;;;;;;;8.20;2.80;;;;;;;1.39;83.79;100065.00;5031535;27;102758;-65
2022/01/21 03:34:22;;;;;;;5.47;2.57;;;;;;;1.38;83.85;100063.25;5051186;27;103103;-65
2022/01/21 03:36:50;;;;;;;8.07;2.80;;;;;;;1.35;83.67;100067.66;5036117;27;104384;-65
2022/01/21 03:39:18;;;;;;;8.83;3.27;;;;;;;1.28;83.99;100073.81;5033389;27;103273;-64
2022/01/21 03:41:49;;;;;;;8.27;3.10;;;;;;;1.29;83.49;100078.16;5035927;27;102741;-64
2022/01/21 03:44:20;;;;;;;5.53;2.47;;;;;;;1.35;83.79;100078.94;5030341;27;103608;-65
2022/01/21 03:46:48;;;;;;;7.53;2.70;;;;;;;1.24;84.74;100078.22;5039165;27;104277;-65
2022/01/21 03:49:17;;;;;;;8.73;2.60;;;;;;;1.26;85.11;100089.50;5034952;27;105166;-65
2022/01/21 03:51:47;;;;;;;6.70;2.60;;;;;;;1.16;84.83;100090.47;5033161;27;102729;-65
2022/01/21 03:54:15;;;;;;;4.90;2.27;;;;;;;1.24;84.54;100088.63;5034125;27;104226;-65
2022/01/21 03:56:43;;;;;;;6.10;2.83;;;;;;;1.26;84.92;100081.69;5034758;27;103370;-65
2022/01/21 03:59:12;;;;;;;7.87;2.50;;;;;;;1.25;84.35;100081.69;5031966;27;103326;-65
2022/01/21 04:01:41;;;;;;;7.37;2.50;;;;;;;1.15;84.71;100086.16;5034132;27;102956;-65
2022/01/21 04:04:10;;;;;;;6.33;2.23;;;;;;;1.25;84.88;100085.16;5032372;27;103704;-63
2022/01/21 04:06:40;;;;;;;9.20;2.80;;;;;;;1.13;84.29;100082.69;5029582;27;104340;-63
2022/01/21 04:09:11;;;;;;;7.13;2.10;;;;;;;1.23;84.67;100079.09;5048052;27;105512;-64
2022/01/21 04:11:40;;;;;;;6.87;2.77;;;;;;;1.21;84.32;100075.63;5032996;27;102739;-65
2022/01/21 04:14:08;;;;;;;8.83;2.50;;;;;;;1.27;84.32;100080.78;5049104;27;103879;-63
2022/01/21 04:16:36;;;;;;;5.57;2.50;;;;;;;1.20;84.21;100073.06;5032633;27;104302;-63
2022/01/21 04:19:06;;;;;;;9.03;3.10;;;;;;;1.24;84.42;100086.03;5033551;27;102671;-64
2022/01/21 04:21:34;;;;;;;7.17;2.77;;;;;;;1.20;84.26;100081.75;5034850;27;102752;-63
2022/01/21 04:24:03;;;;;;;8.00;2.60;;;;;;;1.09;84.47;100091.44;5031601;27;104173;-63
2022/01/21 04:26:37;;;;;;;9.07;3.33;;;;;;;1.08;84.46;100089.72;5049317;27;106006;-65
2022/01/21 04:29:11;;;;;;;3.57;2.30;;;;;;;1.01;84.60;100091.50;5034526;27;103368;-65
2022/01/21 04:31:47;;;;;;;6.93;3.00;;;;;;;1.08;84.49;100100.97;5031652;27;102906;-65
2022/01/21 04:34:19;;;;;;;5.53;3.00;;;;;;;1.07;85.16;100107.06;5030684;27;103749;-65
2022/01/21 04:36:47;;;;;;;5.37;2.60;;;;;;;1.14;84.83;100106.13;5036276;27;103261;-64
2022/01/21 04:39:31;;;;;;;5.50;2.33;;;;;;;1.07;84.44;100116.59;5030751;27;103368;-63
2022/01/21 04:47:40;;;;;;;4.07;2.57;;;;;;;0.91;85.43;100118.53;5031326;27;105968;-64
2022/01/21 04:50:15;;;;;;;8.77;2.60;;;;;;;0.88;85.34;100117.69;5029513;27;104478;-64
2022/01/21 04:52:48;;;;;;;9.50;2.60;;;;;;;0.92;85.91;100122.00;5047280;27;102869;-64
2022/01/21 04:55:52;;;;;;;6.70;2.77;;;;;;;0.82;85.67;100123.84;5029620;27;102981;-68
2022/01/21 04:58:20;;;;;;;6.27;3.10;;;;;;;0.65;86.77;100124.91;5028124;27;104818;-68
2022/01/21 05:00:50;;;;;;;4.70;2.90;;;;;;;0.79;86.44;100128.19;5029834;27;105557;-64
2022/01/21 05:03:19;;;;;;;7.60;2.87;;;;;;;0.82;86.55;100131.63;5032209;27;103067;-65
2022/01/21 05:05:48;;;;;;;10.63;2.90;;;;;;;0.83;86.32;100129.91;5032643;27;102994;-65
2022/01/21 05:08:29;;;;;;;7.80;2.80;;;;;;;0.86;85.98;100129.88;5025816;27;105362;-66
2022/01/21 05:10:57;;;;;;;5.60;2.60;;;;;;;0.84;86.29;100126.44;5031189;27;106245;-65
2022/01/21 05:13:28;;;;;;;10.27;3.43;;;;;;;0.83;86.52;100132.50;5033066;27;102856;-64
2022/01/21 05:16:03;;;;;;;5.40;2.70;;;;;;;0.90;86.68;100136.78;5032389;27;103940;-63
2022/01/21 05:18:32;;;;;;;6.37;3.17;;;;;;;0.96;86.26;100145.38;5033455;27;103876;-65
2022/01/21 05:21:21;;;;;;;8.07;2.93;;;;;;;0.92;86.55;100151.50;5051496;27;103145;-64
2022/01/21 05:24:06;;;;;;;4.07;2.40;;;;;;;0.94;86.54;100143.66;5052606;27;102662;-65
2022/01/21 05:26:37;;;;;;;4.77;2.10;;;;;;;1.03;86.60;100143.56;5028750;27;102801;-65
2022/01/21 05:29:07;;;;;;;8.63;3.13;;;;;;;1.03;86.24;100159.19;5020001;27;105471;-66
2022/01/21 05:31:58;;;;;;;7.93;2.80;;;;;;;1.01;86.10;100155.75;5047528;27;103793;-66
2022/01/21 05:34:36;;;;;;;4.80;3.10;;;;;;;0.93;86.49;100170.56;5025863;27;103870;-66
2022/01/21 05:37:15;;;;;;;5.67;2.60;;;;;;;1.01;86.54;100167.00;5049321;27;102924;-67
2022/01/21 05:40:02;;;;;;;9.77;3.10;;;;;;;0.97;86.28;100154.03;5046065;27;103285;-66
2022/01/21 05:42:40;;;;;;;10.37;3.10;;;;;;;0.98;86.25;100151.41;5030265;27;104980;-65
2022/01/21 05:48:31;;;;;;;6.23;2.43;;;;;;;0.94;86.09;100148.88;5046283;27;103650;-66
2022/01/21 05:51:04;;;;;;;7.10;3.23;;;;;;;0.99;85.84;100154.88;5040356;27;103244;-66
2022/01/21 05:53:56;;;;;;;4.70;2.70;;;;;;;1.07;86.12;100142.63;5047980;27;103145;-66
2022/01/21 05:56:30;;;;;;;8.87;3.33;;;;;;;0.93;86.76;100136.72;5031086;27;102784;-66
2022/01/21 05:59:09;;;;;;;9.37;3.73;;;;;;;0.82;86.54;100135.97;5047777;27;102588;-66
2022/01/21 06:01:37;;;;;;;8.77;3.30;;;;;;;0.97;86.34;100138.44;5046977;27;103245;-66
2022/01/21 06:04:07;;;;;;;7.57;3.40;;;;;;;1.09;85.72;100141.78;5033408;27;103307;-67
2022/01/21 06:06:36;;;;;;;6.73;3.00;;;;;;;1.02;85.39;100147.03;5032461;27;102669;-65
2022/01/21 06:09:09;;;;;;;10.67;3.80;;;;;;;1.01;85.49;100150.53;5043747;27;104569;-65
2022/01/21 06:11:38;;;;;;;14.77;4.40;;;;;;;0.92;85.54;100158.44;5035011;27;103110;-66
2022/01/21 06:14:06;;;;;;;7.80;3.20;;;;;;;0.62;87.29;100188.19;5029310;27;104135;-65
2022/01/21 06:16:38;;;;;;;7.60;3.03;;;;;;;0.68;87.26;100188.16;5025041;27;103370;-65
2022/01/21 06:19:07;;;;;;;8.37;2.83;;;;;;;0.88;86.68;100187.97;5048393;27;102822;-64
2022/01/21 06:21:35;;;;;;;8.33;3.23;;;;;;;0.79;86.75;100196.72;5049625;27;103261;-65
2022/01/21 06:24:05;;;;;;;11.07;4.03;;;;;;;0.71;87.14;100197.66;5050260;27;103012;-64
2022/01/21 06:26:34;;;;;;;10.83;3.73;;;;;;;0.84;87.27;100188.88;5048019;27;102630;-65
2022/01/21 06:29:03;;;;;;;11.60;4.27;;;;;;;0.98;86.63;100194.81;5031954;27;103766;-65
2022/01/21 06:31:31;;;;;;;6.40;3.83;;;;;;;1.00;86.79;100211.28;5025408;27;104275;-65
2022/01/21 06:33:59;;;;;;;10.03;4.43;;;;;;;0.92;86.80;100218.28;5044697;27;103456;-66
2022/01/21 06:36:28;;;;;;;10.90;4.80;;;;;;;0.99;86.40;100222.56;5027453;27;102751;-65
2022/01/21 06:38:56;;;;;;;10.50;5.23;;;;;;;0.98;86.67;100224.28;5050916;27;104056;-65
2022/01/21 06:41:27;;;;;;;8.20;4.17;;;;;;;0.92;87.21;100231.31;5047100;27;104648;-65
2022/01/21 06:43:55;;;;;;;10.03;4.20;;;;;;;1.07;86.70;100229.41;5046130;27;103308;-65
2022/01/21 06:46:23;;;;;;;10.17;3.87;;;;;;;1.15;86.28;100232.78;5033171;27;102946;-66
2022/01/21 06:48:51;;;;;;;11.70;4.13;;;;;;;0.94;86.15;100232.16;5032977;27;104269;-65
2022/01/21 06:51:19;;;;;;;12.00;3.33;;;;;;;0.95;86.59;100233.88;5050858;27;103239;-65
2022/01/21 06:53:47;;;;;;;7.93;3.67;;;;;;;0.89;86.20;100228.72;5037354;27;105051;-66
2022/01/21 06:56:15;;;;;;;7.47;3.20;;;;;;;0.87;87.12;100235.69;5052384;27;102799;-65
2022/01/21 06:58:47;;;;;;;7.83;3.77;;;;;;;1.02;86.14;100235.53;5052682;27;104511;-65
2022/01/21 07:01:15;;;;;;;7.10;3.77;;;;;;;1.01;86.43;100236.44;5051201;27;104220;-65
2022/01/21 07:03:43;;;;;;;8.47;4.20;;;;;;;0.98;86.21;100234.69;5026545;27;103403;-65
2022/01/21 07:06:11;;;;;;;9.37;3.83;;;;;;;1.06;86.40;100226.84;5047416;27;102601;-65
2022/01/21 07:08:39;;;;;;;7.27;3.50;;;;;;;0.99;86.43;100218.22;5031622;27;103166;-65
2022/01/21 07:11:07;;;;;;;6.43;2.73;;;;;;;1.11;86.61;100225.03;5049113;27;103668;-65
2022/01/21 07:13:35;;;;;;;8.63;4.10;;;;;;;1.09;86.13;100232.00;5051021;27;103188;-65
2022/01/21 07:16:06;;;;;;;8.90;3.60;;;;;;;1.17;86.03;100236.25;5032802;27;102773;-65
2022/01/21 07:18:34;;;;;;;8.63;4.03;;;;;;;1.13;86.02;100233.69;5045197;27;102932;-65
2022/01/21 07:21:02;;;;;;;6.80;3.70;;;;;;;1.17;85.55;100240.59;5046609;27;104127;-65
2022/01/21 07:23:30;;;;;;;8.73;3.70;;;;;;;1.21;86.05;100231.88;5035018;27;103215;-67
2022/01/21 07:25:59;;;;;;;8.20;3.73;;;;;;;1.24;85.95;100237.03;5050028;27;103276;-67
2022/01/21 07:28:27;;;;;;;8.13;3.67;;;;;;;1.26;85.69;100234.44;5047731;27;104267;-67
2022/01/21 07:30:55;;;;;;;8.83;4.00;;;;;;;1.20;85.68;100244.91;5049853;27;103385;-66
2022/01/21 07:33:24;;;;;;;8.37;4.07;;;;;;;1.26;85.44;100232.69;5048914;27;103042;-67
2022/01/21 07:35:52;;;;;;;6.97;3.13;;;;;;;1.16;85.60;100231.06;5050546;27;103043;-67
2022/01/21 07:38:20;;;;;;;11.03;4.13;;;;;;;1.16;86.03;100223.25;5047091;27;102815;-67
2022/01/21 07:40:48;;;;;;;8.90;4.30;;;;;;;1.25;84.95;100233.56;5053082;27;103063;-67
2022/01/21 07:43:17;;;;;;;8.33;4.20;;;;;;;1.28;85.09;100233.53;5031090;27;103367;-66
2022/01/21 07:45:45;;;;;;;8.60;3.97;;;;;;;1.40;85.03;100235.16;5046419;27;102744;-65
2022/01/21 07:48:13;;;;;;;8.77;4.90;;;;;;;1.44;84.17;100240.28;5031053;27;102788;-65
2022/01/21 07:50:43;;;;;;;6.97;4.20;;;;;;;1.37;84.39;100233.44;5040465;27;104220;-64
2022/01/21 07:53:11;;;;;;;10.23;4.37;;;;;;;1.37;83.52;100238.66;5031649;27;104236;-66
2022/01/21 07:55:39;;;;;;;7.40;4.30;;;;;;;1.40;83.77;100241.22;5049266;27;102787;-64
2022/01/21 07:58:08;;;;;;;10.20;4.43;;;;;;;1.48;83.26;100236.78;5050947;27;103679;-64
2022/01/21 08:00:36;;;;;;;9.93;4.27;;;;;;;1.61;83.47;100240.97;5049159;27;103397;-65
2022/01/21 08:03:04;;;;;;;11.03;4.10;;;;;;;1.60;82.87;100243.59;5050530;27;103224;-64
2022/01/21 08:05:35;;;;;;;15.40;4.83;;;;;;;1.67;82.72;100247.84;5034174;27;104349;-66
2022/01/21 08:08:05;;;;;;;7.80;4.90;;;;;;;1.52;83.58;100238.47;5051383;27;103939;-67
2022/01/21 08:10:33;;;;;;;7.97;3.83;;;;;;;1.62;83.02;100249.66;5049494;27;103746;-64
2022/01/21 08:13:02;;;;;;;11.27;4.60;;;;;;;1.66;82.88;100246.09;5028325;27;104169;-64
2022/01/21 08:15:31;;;;;;;9.53;4.47;;;;;;;1.61;83.24;100247.91;5052754;27;103229;-66
2022/01/21 08:18:01;;;;;;;12.67;4.80;;;;;;;1.65;82.49;100249.63;5050302;27;104123;-66
2022/01/21 08:20:31;;;;;;;7.93;4.43;;;;;;;1.71;82.76;100250.38;5049690;27;103222;-64
2022/01/21 08:22:59;;;;;;;7.90;3.90;;;;;;;1.63;81.82;100246.13;5033608;27;104211;-66
2022/01/21 08:25:29;;;;;;;9.73;4.20;;;;;;;1.48;82.44;100244.59;5051228;27;102531;-64
2022/01/21 08:27:57;;;;;;;6.67;4.37;;;;;;;1.59;82.67;100242.72;5052422;27;103934;-64
2022/01/21 08:30:25;;;;;;;6.87;4.10;;;;;;;1.64;82.71;100237.44;5046399;27;103644;-65
2022/01/21 08:32:53;;;;;;;9.63;4.40;;;;;;;1.80;82.56;100244.19;5045383;27;103239;-64
2022/01/21 08:35:22;;;;;;;15.73;4.57;;;;;;;1.66;82.04;100241.75;5044997;27;102695;-65
2022/01/21 08:37:52;;;;;;;8.33;4.20;;;;;;;1.66;82.25;100236.56;5047480;27;102785;-66
2022/01/21 08:40:20;;;;;;;10.83;4.17;;;;;;;1.65;82.35;100245.28;5049965;27;103298;-68
2022/01/21 08:42:50;;;;;;;9.30;5.27;;;;;;;1.74;82.48;100245.13;5033316;27;103144;-67
2022/01/21 08:45:19;;;;;;;12.43;5.50;;;;;;;1.85;81.88;100249.38;5037143;27;103048;-66
2022/01/21 08:47:48;;;;;;;7.77;4.97;;;;;;;1.87;81.73;100265.84;5050006;27;103527;-66
2022/01/21 08:50:18;;;;;;;12.60;5.00;;;;;;;1.83;80.79;100270.22;5043635;27;103756;-64
2022/01/21 08:52:48;;;;;;;8.17;4.70;;;;;;;2.00;81.04;100267.41;5044904;27;103186;-64
2022/01/21 08:55:19;;;;;;;11.73;5.00;;;;;;;1.84;81.14;100271.09;5046150;27;102856;-64
2022/01/21 08:57:48;;;;;;;8.10;5.27;;;;;;;2.04;81.29;100269.97;5049944;27;103952;-66
2022/01/21 09:00:20;;;;;;;12.13;5.10;;;;;;;2.04;81.07;100274.31;5047373;27;103939;-64
2022/01/21 09:02:51;;;;;;;7.47;5.53;;;;;;;1.98;81.39;100279.59;5050397;27;103209;-66
2022/01/21 09:05:19;;;;;;;9.83;4.90;;;;;;;2.09;81.15;100277.72;5051819;27;102688;-67
2022/01/21 09:07:47;;;;;;;8.90;4.73;;;;;;;2.03;81.91;100272.56;5050895;27;102900;-67
2022/01/21 09:10:15;;;;;;;11.90;5.37;;;;;;;2.13;81.70;100276.81;5050106;27;103934;-65
2022/01/21 09:12:43;;;;;;;7.33;4.70;;;;;;;2.18;80.71;100272.38;5034014;27;103184;-66
2022/01/21 09:15:12;;;;;;;9.23;5.23;;;;;;;2.33;80.18;100267.78;5053980;27;102582;-66
2022/01/21 09:17:41;;;;;;;8.03;4.73;;;;;;;2.43;79.91;100263.31;5026009;27;104012;-63
2022/01/21 09:20:09;;;;;;;10.50;4.47;;;;;;;2.39;80.33;100266.84;5032406;27;103293;-65
2022/01/21 09:22:38;;;;;;;11.67;5.20;;;;;;;2.40;79.45;100272.94;5050791;27;102637;-64
2022/01/21 09:25:06;;;;;;;9.53;4.67;;;;;;;2.33;79.66;100266.94;5034749;27;102806;-65
2022/01/21 09:27:35;;;;;;;12.63;5.80;;;;;;;2.17;80.10;100271.50;5047390;27;104588;-64
2022/01/21 09:30:05;;;;;;;10.60;5.70;;;;;;;2.16;80.96;100264.56;5045976;27;104230;-66
2022/01/21 09:32:35;;;;;;;14.07;5.90;;;;;;;2.28;80.20;100269.63;5035032;27;103215;-66
2022/01/21 09:35:05;;;;;;;15.40;5.57;;;;;;;2.23;79.53;100275.78;5050074;27;103153;-66
2022/01/21 09:37:33;;;;;;;8.50;5.20;;;;;;;2.20;79.66;100288.84;5060025;27;102643;-66
2022/01/21 09:40:02;;;;;;;10.73;5.67;;;;;;;2.17;80.38;100288.91;5057315;27;104194;-66
2022/01/21 09:42:33;;;;;;;11.17;5.23;;;;;;;2.49;79.64;100284.09;5057094;27;103331;-64
2022/01/21 09:45:09;;;;;;;9.33;4.90;;;;;;;2.56;79.50;100275.28;5060798;27;102695;-64
2022/01/21 09:47:46;;;;;;;11.27;5.03;;;;;;;2.63;79.89;100279.53;5049152;27;102585;-64
2022/01/21 09:50:17;;;;;;;11.53;4.97;;;;;;;2.42;78.59;100282.44;5036421;27;103233;-66
2022/01/21 09:52:46;;;;;;;10.67;4.60;;;;;;;2.62;78.73;100285.63;5047910;27;103393;-65
2022/01/21 09:55:17;;;;;;;9.67;5.30;;;;;;;2.56;78.67;100301.38;5046461;27;102666;-66
2022/01/21 09:57:49;;;;;;;11.03;4.63;;;;;;;2.81;77.97;100302.72;5050079;27;104081;-66
2022/01/21 10:00:19;;;;;;;10.63;5.77;;;;;;;2.69;77.40;100305.56;5043496;27;103659;-66
2022/01/21 10:02:49;;;;;;;8.47;5.30;;;;;;;2.90;77.72;100309.56;5029371;27;103237;-64
2022/01/21 10:05:20;;;;;;;10.43;4.87;;;;;;;2.93;77.66;100307.75;5030874;27;102736;-67
2022/01/21 10:07:50;;;;;;;10.07;4.20;;;;;;;2.94;76.39;100300.78;5046763;27;103036;-66
2022/01/21 10:10:19;;;;;;;11.63;5.53;;;;;;;3.10;77.05;100314.44;5052265;27;103262;-66
2022/01/21 10:12:50;;;;;;;11.07;5.30;;;;;;;2.80;76.79;100314.06;5041745;27;104355;-66
2022/01/21 10:15:20;;;;;;;12.07;5.27;;;;;;;2.98;76.96;100319.84;5047457;27;102765;-65
2022/01/21 10:18:00;;;;;;;9.53;4.80;;;;;;;3.03;77.23;100318.06;5059153;27;102867;-64
2022/01/21 10:20:57;;;;;;;9.10;4.87;;;;;;;3.02;77.52;100318.94;5049917;27;104001;-64
2022/01/21 10:23:27;;;;;;;10.27;4.53;;;;;;;3.05;77.60;100321.50;5045193;27;103186;-64
2022/01/21 10:26:01;;;;;;;12.27;4.80;;;;;;;2.99;77.61;100317.25;5031803;27;102803;-65
2022/01/21 10:28:30;;;;;;;11.40;5.30;;;;;;;2.70;77.14;100327.25;5035033;27;103825;-66
2022/01/21 10:31:09;;;;;;;10.43;4.47;;;;;;;2.83;77.89;100321.84;5043717;27;103818;-67
2022/01/21 10:33:41;;;;;;;12.07;5.90;;;;;;;2.86;77.58;100324.38;5031146;27;103913;-67
2022/01/21 10:36:15;;;;;;;13.90;6.63;;;;;;;2.65;77.76;100322.13;5036285;27;102786;-67
2022/01/21 10:38:46;;;;;;;9.67;4.60;;;;;;;2.81;78.07;100313.16;5039017;27;102771;-67
2022/01/21 10:41:16;;;;;;;8.43;4.27;;;;;;;3.03;77.79;100318.06;5052217;27;104041;-66
2022/01/21 10:43:59;;;;;;;8.57;4.23;;;;;;;3.32;77.06;100305.34;5053003;27;103244;-67
2022/01/21 10:46:27;;;;;;;9.10;3.87;;;;;;;3.38;76.08;100295.66;5048904;27;102730;-67
2022/01/21 10:49:01;;;;;;;6.70;3.73;;;;;;;3.49;75.91;100295.44;5033694;27;102697;-65
2022/01/21 10:51:34;;;;;;;8.47;3.83;;;;;;;3.86;75.58;100296.47;5045132;27;103336;-65
2022/01/21 10:54:15;;;;;;;10.87;4.33;;;;;;;3.47;75.43;100299.84;5044877;27;103233;-68
2022/01/21 10:57:04;;;;;;;8.17;3.63;;;;;;;3.56;75.27;100289.25;5045750;27;102709;-65
2022/01/21 10:59:49;;;;;;;9.27;4.00;;;;;;;3.56;75.43;100288.38;5047116;27;102759;-65
2022/01/21 11:02:28;;;;;;;14.07;5.37;;;;;;;3.68;74.32;100288.97;5056764;27;105115;-65
2022/01/21 11:05:01;;;;;;;10.37;4.23;;;;;;;3.52;74.02;100295.41;5030924;27;103144;-65
2022/01/21 11:07:54;;;;;;;12.87;4.27;;;;;;;3.18;74.97;100282.09;5045758;27;102636;-65
2022/01/21 11:10:47;;;;;;;9.13;4.07;;;;;;;3.24;74.60;100286.34;5052660;27;102956;-65
2022/01/21 11:13:30;;;;;;;8.60;3.63;;;;;;;3.57;75.18;100274.41;5047176;27;103982;-65
2022/01/21 11:16:00;;;;;;;12.73;4.07;;;;;;;3.57;74.66;100275.25;5028682;27;103177;-64
2022/01/21 11:18:56;;;;;;;5.90;3.10;;;;;;;3.36;75.23;100279.16;5037248;27;102629;-64
2022/01/21 11:21:42;;;;;;;8.87;4.27;;;;;;;3.61;74.09;100271.72;5029192;27;103652;-64
2022/01/21 11:24:14;;;;;;;12.67;4.10;;;;;;;3.66;74.39;100275.09;5060591;27;103340;-65
2022/01/21 11:26:42;;;;;;;9.20;3.77;;;;;;;3.41;74.06;100274.69;5051235;27;103227;-64
2022/01/21 11:29:11;;;;;;;11.10;3.77;;;;;;;3.18;74.93;100276.88;5037211;27;102818;-65
2022/01/21 11:31:40;;;;;;;8.77;3.50;;;;;;;3.39;74.75;100270.41;5049061;27;103756;-64
2022/01/21 11:34:11;;;;;;;7.03;3.60;;;;;;;3.35;74.46;100272.19;5049861;27;104060;-65
2022/01/21 11:36:39;;;;;;;7.03;3.40;;;;;;;3.65;74.97;100262.06;5032611;27;103034;-64
2022/01/21 11:39:07;;;;;;;9.40;2.97;;;;;;;3.87;73.69;100261.59;5030162;27;102862;-67
2022/01/21 11:41:41;;;;;;;8.50;3.50;;;;;;;3.40;73.70;100266.88;5056506;27;103858;-66
2022/01/21 11:44:14;;;;;;;6.87;3.70;;;;;;;3.61;74.19;100263.88;5049953;27;104741;-67
2022/01/21 11:47:00;;;;;;;9.33;3.20;;;;;;;3.62;74.25;100262.13;5030098;27;103171;-67
2022/01/21 11:49:30;;;;;;;6.73;3.40;;;;;;;3.40;74.15;100261.66;5046720;27;102689;-67
2022/01/21 11:52:15;;;;;;;8.63;3.73;;;;;;;3.34;75.18;100261.78;5055223;27;103813;-67
2022/01/21 11:54:43;;;;;;;7.17;3.33;;;;;;;3.22;74.78;100262.00;5060236;27;104448;-68
2022/01/21 11:57:15;;;;;;;6.17;2.93;;;;;;;3.08;74.66;100266.63;5048203;27;103186;-64
2022/01/21 11:59:53;;;;;;;8.37;3.67;;;;;;;3.27;74.75;100260.16;5048333;27;103015;-64
2022/01/21 12:02:23;;;;;;;6.07;3.57;;;;;;;3.34;74.12;100265.25;5034686;27;102997;-65
2022/01/21 12:04:53;;;;;;;8.70;3.63;;;;;;;3.28;74.37;100262.75;5049287;27;104119;-65
2022/01/21 12:07:48;;;;;;;6.17;3.00;;;;;;;3.26;74.40;100268.88;5051150;27;103263;-67
2022/01/21 12:10:31;;;;;;;9.50;3.37;;;;;;;3.53;74.84;100252.72;5044599;27;102655;-67
2022/01/21 12:13:20;;;;;;;9.07;3.40;;;;;;;3.58;74.63;100239.53;5035679;27;104009;-66
2022/01/21 12:21:55;;;;;;;13.43;3.50;;;;;;;3.52;73.53;100232.69;5031841;27;102834;-65
2022/01/21 12:24:56;;;;;;;9.63;3.40;;;;;;;3.68;74.66;100236.69;5038705;27;102697;-67
2022/01/21 12:27:26;;;;;;;7.47;3.37;;;;;;;3.63;73.65;100225.47;5034653;27;104107;-65
2022/01/21 12:30:26;;;;;;;11.43;3.40;;;;;;;3.61;74.35;100231.63;5043715;27;103178;-66
2022/01/21 12:32:57;;;;;;;13.00;3.20;;;;;;;3.76;73.55;100233.94;5026010;27;102995;-67